sensor_id;sensor_type;location;lat;lon;timestamp;temperature;humidity
65972;SHT31;52726;48.852;9.152;2023-02-12T00:00:00;3.94;85.01
65972;SHT31;52726;48.852;9.152;2023-02-12T00:02:25;3.95;84.72
65972;SHT31;52726;48.852;9.152;2023-02-12T00:04:51;3.93;84.72
65972;SHT31;52726;48.852;9.152;2023-02-12T00:07:16;3.86;84.92
65972;SHT31;52726;48.852;9.152;2023-02-12T00:09:42;3.86;85.24
65972;SHT31;52726;48.852;9.152;2023-02-12T00:12:07;3.86;85.22
65972;SHT31;52726;48.852;9.152;2023-02-12T00:14:33;3.84;85.37
65972;SHT31;52726;48.852;9.152;2023-02-12T00:16:59;3.82;85.41
65972;SHT31;52726;48.852;9.152;2023-02-12T00:19:24;3.83;85.30
65972;SHT31;52726;48.852;9.152;2023-02-12T00:21:50;3.90;85.30
65972;SHT31;52726;48.852;9.152;2023-02-12T00:24:15;3.89;85.29
65972;SHT31;52726;48.852;9.152;2023-02-12T00:26:40;3.91;85.13
65972;SHT31;52726;48.852;9.152;2023-02-12T00:29:06;3.93;85.05
65972;SHT31;52726;48.852;9.152;2023-02-12T00:31:31;3.94;85.21
65972;SHT31;52726;48.852;9.152;2023-02-12T00:33:58;3.97;85.15
65972;SHT31;52726;48.852;9.152;2023-02-12T00:36:26;3.98;84.85
65972;SHT31;52726;48.852;9.152;2023-02-12T00:38:53;3.95;84.45
65972;SHT31;52726;48.852;9.152;2023-02-12T00:41:19;4.01;84.55
65972;SHT31;52726;48.852;9.152;2023-02-12T00:43:45;3.93;84.86
65972;SHT31;52726;48.852;9.152;2023-02-12T00:46:11;3.89;85.22
65972;SHT31;52726;48.852;9.152;2023-02-12T00:48:37;3.82;85.72
65972;SHT31;52726;48.852;9.152;2023-02-12T00:51:03;3.83;85.85
65972;SHT31;52726;48.852;9.152;2023-02-12T00:53:29;3.80;85.72
65972;SHT31;52726;48.852;9.152;2023-02-12T00:55:55;3.80;85.47
65972;SHT31;52726;48.852;9.152;2023-02-12T00:58:21;3.84;85.54
65972;SHT31;52726;48.852;9.152;2023-02-12T01:00:46;3.84;85.66
65972;SHT31;52726;48.852;9.152;2023-02-12T01:03:12;3.86;85.53
65972;SHT31;52726;48.852;9.152;2023-02-12T01:05:37;3.86;85.50
65972;SHT31;52726;48.852;9.152;2023-02-12T01:08:03;3.82;85.53
65972;SHT31;52726;48.852;9.152;2023-02-12T01:10:28;3.86;85.66
65972;SHT31;52726;48.852;9.152;2023-02-12T01:12:53;3.89;85.51
65972;SHT31;52726;48.852;9.152;2023-02-12T01:15:19;3.93;85.39
65972;SHT31;52726;48.852;9.152;2023-02-12T01:17:44;3.93;85.50
65972;SHT31;52726;48.852;9.152;2023-02-12T01:20:14;3.91;85.47
65972;SHT31;52726;48.852;9.152;2023-02-12T01:22:41;3.93;85.41
65972;SHT31;52726;48.852;9.152;2023-02-12T01:25:07;3.94;85.18
65972;SHT31;52726;48.852;9.152;2023-02-12T01:27:32;3.95;85.46
65972;SHT31;52726;48.852;9.152;2023-02-12T01:29:58;3.93;85.37
65972;SHT31;52726;48.852;9.152;2023-02-12T01:32:23;3.94;85.32
65972;SHT31;52726;48.852;9.152;2023-02-12T01:34:49;3.94;85.29
65972;SHT31;52726;48.852;9.152;2023-02-12T01:37:14;3.93;85.12
65972;SHT31;52726;48.852;9.152;2023-02-12T01:39:40;3.83;85.46
65972;SHT31;52726;48.852;9.152;2023-02-12T01:42:05;3.80;85.75
65972;SHT31;52726;48.852;9.152;2023-02-12T01:44:32;3.84;85.73
65972;SHT31;52726;48.852;9.152;2023-02-12T01:47:04;3.86;85.64
65972;SHT31;52726;48.852;9.152;2023-02-12T01:49:34;3.87;85.68
65972;SHT31;52726;48.852;9.152;2023-02-12T01:52:16;3.94;85.46
65972;SHT31;52726;48.852;9.152;2023-02-12T01:54:44;3.90;85.35
65972;SHT31;52726;48.852;9.152;2023-02-12T01:57:10;3.87;85.19
65972;SHT31;52726;48.852;9.152;2023-02-12T01:59:37;3.89;85.45
65972;SHT31;52726;48.852;9.152;2023-02-12T02:02:04;3.91;85.35
65972;SHT31;52726;48.852;9.152;2023-02-12T02:04:35;3.87;85.64
65972;SHT31;52726;48.852;9.152;2023-02-12T02:07:03;3.93;85.48
65972;SHT31;52726;48.852;9.152;2023-02-12T02:09:32;3.93;85.31
65972;SHT31;52726;48.852;9.152;2023-02-12T02:11:58;3.90;85.39
65972;SHT31;52726;48.852;9.152;2023-02-12T02:14:44;3.86;85.51
65972;SHT31;52726;48.852;9.152;2023-02-12T02:29:08;3.82;86.10
65972;SHT31;52726;48.852;9.152;2023-02-12T02:31:48;3.80;86.02
65972;SHT31;52726;48.852;9.152;2023-02-12T02:34:41;3.83;86.00
65972;SHT31;52726;48.852;9.152;2023-02-12T02:37:18;3.83;85.77
65972;SHT31;52726;48.852;9.152;2023-02-12T02:42:26;3.80;86.00
65972;SHT31;52726;48.852;9.152;2023-02-12T02:45:31;3.82;86.09
65972;SHT31;52726;48.852;9.152;2023-02-12T02:50:27;3.84;85.90
65972;SHT31;52726;48.852;9.152;2023-02-12T02:55:29;3.83;86.21
65972;SHT31;52726;48.852;9.152;2023-02-12T02:57:59;3.82;85.97
65972;SHT31;52726;48.852;9.152;2023-02-12T03:00:37;3.82;86.15
65972;SHT31;52726;48.852;9.152;2023-02-12T03:06:01;3.82;85.99
65972;SHT31;52726;48.852;9.152;2023-02-12T03:08:34;3.82;85.97
65972;SHT31;52726;48.852;9.152;2023-02-12T03:11:11;3.82;86.00
65972;SHT31;52726;48.852;9.152;2023-02-12T03:13:46;3.82;86.03
65972;SHT31;52726;48.852;9.152;2023-02-12T03:16:25;3.80;86.09
65972;SHT31;52726;48.852;9.152;2023-02-12T03:18:55;3.80;85.99
65972;SHT31;52726;48.852;9.152;2023-02-12T03:21:31;3.84;86.08
65972;SHT31;52726;48.852;9.152;2023-02-12T03:24:09;3.82;85.84
65972;SHT31;52726;48.852;9.152;2023-02-12T03:26:41;3.79;85.69
65972;SHT31;52726;48.852;9.152;2023-02-12T03:29:07;3.82;85.92
65972;SHT31;52726;48.852;9.152;2023-02-12T03:31:45;3.84;85.86
65972;SHT31;52726;48.852;9.152;2023-02-12T03:34:22;3.83;85.97
65972;SHT31;52726;48.852;9.152;2023-02-12T03:37:04;3.84;85.76
65972;SHT31;52726;48.852;9.152;2023-02-12T03:39:57;3.84;85.90
65972;SHT31;52726;48.852;9.152;2023-02-12T03:42:56;3.82;85.77
65972;SHT31;52726;48.852;9.152;2023-02-12T03:48:32;3.82;85.93
65972;SHT31;52726;48.852;9.152;2023-02-12T03:51:17;3.79;86.14
65972;SHT31;52726;48.852;9.152;2023-02-12T03:53:45;3.77;86.05
65972;SHT31;52726;48.852;9.152;2023-02-12T03:56:14;3.80;86.02
65972;SHT31;52726;48.852;9.152;2023-02-12T03:58:43;3.82;85.73
65972;SHT31;52726;48.852;9.152;2023-02-12T04:01:09;3.80;85.69
65972;SHT31;52726;48.852;9.152;2023-02-12T04:03:35;3.77;85.85
65972;SHT31;52726;48.852;9.152;2023-02-12T04:06:01;3.69;86.76
65972;SHT31;52726;48.852;9.152;2023-02-12T04:08:28;3.62;87.36
65972;SHT31;52726;48.852;9.152;2023-02-12T04:11:21;3.54;87.70
65972;SHT31;52726;48.852;9.152;2023-02-12T04:19:05;3.60;87.19
65972;SHT31;52726;48.852;9.152;2023-02-12T04:30:42;3.66;87.31
65972;SHT31;52726;48.852;9.152;2023-02-12T04:33:10;3.69;86.95
65972;SHT31;52726;48.852;9.152;2023-02-12T04:35:47;3.67;86.96
65972;SHT31;52726;48.852;9.152;2023-02-12T04:38:27;3.67;86.92
65972;SHT31;52726;48.852;9.152;2023-02-12T04:40:55;3.70;86.89
65972;SHT31;52726;48.852;9.152;2023-02-12T04:43:33;3.72;86.77
65972;SHT31;52726;48.852;9.152;2023-02-12T04:45:59;3.72;86.90
65972;SHT31;52726;48.852;9.152;2023-02-12T04:48:24;3.83;86.55
65972;SHT31;52726;48.852;9.152;2023-02-12T04:50:50;4.00;85.80
65972;SHT31;52726;48.852;9.152;2023-02-12T04:53:16;4.07;85.24
65972;SHT31;52726;48.852;9.152;2023-02-12T04:55:41;4.14;84.97
65972;SHT31;52726;48.852;9.152;2023-02-12T04:58:06;4.24;84.27
65972;SHT31;52726;48.852;9.152;2023-02-12T05:00:32;4.27;84.03
65972;SHT31;52726;48.852;9.152;2023-02-12T05:02:57;4.22;84.03
65972;SHT31;52726;48.852;9.152;2023-02-12T05:05:23;4.20;84.14
65972;SHT31;52726;48.852;9.152;2023-02-12T05:07:48;4.22;84.19
65972;SHT31;52726;48.852;9.152;2023-02-12T05:10:14;4.15;84.27
65972;SHT31;52726;48.852;9.152;2023-02-12T05:12:39;4.15;84.21
65972;SHT31;52726;48.852;9.152;2023-02-12T05:15:05;4.11;84.53
65972;SHT31;52726;48.852;9.152;2023-02-12T05:17:31;4.10;84.64
65972;SHT31;52726;48.852;9.152;2023-02-12T05:19:56;4.10;84.58
65972;SHT31;52726;48.852;9.152;2023-02-12T05:22:21;4.05;84.50
65972;SHT31;52726;48.852;9.152;2023-02-12T05:24:46;4.07;84.45
65972;SHT31;52726;48.852;9.152;2023-02-12T05:27:12;4.07;84.47
65972;SHT31;52726;48.852;9.152;2023-02-12T05:29:37;4.05;84.51
65972;SHT31;52726;48.852;9.152;2023-02-12T05:32:03;4.05;84.47
65972;SHT31;52726;48.852;9.152;2023-02-12T05:34:29;4.10;84.44
65972;SHT31;52726;48.852;9.152;2023-02-12T05:36:54;4.08;84.38
65972;SHT31;52726;48.852;9.152;2023-02-12T05:39:20;4.07;84.41
65972;SHT31;52726;48.852;9.152;2023-02-12T05:41:45;4.07;84.48
65972;SHT31;52726;48.852;9.152;2023-02-12T05:44:11;4.08;84.35
65972;SHT31;52726;48.852;9.152;2023-02-12T05:46:37;4.05;84.47
65972;SHT31;52726;48.852;9.152;2023-02-12T05:49:03;4.04;84.84
65972;SHT31;52726;48.852;9.152;2023-02-12T05:51:28;4.01;84.64
65972;SHT31;52726;48.852;9.152;2023-02-12T05:53:58;4.01;84.77
65972;SHT31;52726;48.852;9.152;2023-02-12T05:56:27;4.01;84.87
65972;SHT31;52726;48.852;9.152;2023-02-12T05:58:58;3.95;84.82
65972;SHT31;52726;48.852;9.152;2023-02-12T06:01:30;3.98;85.04
65972;SHT31;52726;48.852;9.152;2023-02-12T06:03:58;4.01;85.04
65972;SHT31;52726;48.852;9.152;2023-02-12T06:06:24;3.98;85.01
65972;SHT31;52726;48.852;9.152;2023-02-12T06:08:50;3.97;84.96
65972;SHT31;52726;48.852;9.152;2023-02-12T06:11:15;4.01;85.12
65972;SHT31;52726;48.852;9.152;2023-02-12T06:13:42;3.97;85.00
65972;SHT31;52726;48.852;9.152;2023-02-12T06:16:16;4.00;85.13
65972;SHT31;52726;48.852;9.152;2023-02-12T06:18:41;4.00;85.03
65972;SHT31;52726;48.852;9.152;2023-02-12T06:21:07;4.00;85.19
65972;SHT31;52726;48.852;9.152;2023-02-12T06:23:32;4.01;85.06
65972;SHT31;52726;48.852;9.152;2023-02-12T06:25:57;4.04;85.10
65972;SHT31;52726;48.852;9.152;2023-02-12T06:28:23;4.05;85.01
65972;SHT31;52726;48.852;9.152;2023-02-12T06:30:49;4.11;84.79
65972;SHT31;52726;48.852;9.152;2023-02-12T06:33:14;4.17;84.54
65972;SHT31;52726;48.852;9.152;2023-02-12T06:35:39;4.14;84.41
65972;SHT31;52726;48.852;9.152;2023-02-12T06:38:05;4.17;84.33
65972;SHT31;52726;48.852;9.152;2023-02-12T06:40:31;4.11;84.21
65972;SHT31;52726;48.852;9.152;2023-02-12T06:42:56;4.13;84.24
65972;SHT31;52726;48.852;9.152;2023-02-12T06:45:22;4.13;84.04
65972;SHT31;52726;48.852;9.152;2023-02-12T06:47:47;4.13;83.96
65972;SHT31;52726;48.852;9.152;2023-02-12T06:50:12;4.13;83.70
65972;SHT31;52726;48.852;9.152;2023-02-12T06:52:38;4.15;83.54
65972;SHT31;52726;48.852;9.152;2023-02-12T06:55:03;4.13;83.64
65972;SHT31;52726;48.852;9.152;2023-02-12T06:57:29;4.13;83.60
65972;SHT31;52726;48.852;9.152;2023-02-12T06:59:54;4.15;83.57
65972;SHT31;52726;48.852;9.152;2023-02-12T07:02:20;4.13;83.66
65972;SHT31;52726;48.852;9.152;2023-02-12T07:04:45;4.11;83.57
65972;SHT31;52726;48.852;9.152;2023-02-12T07:07:11;4.18;83.31
65972;SHT31;52726;48.852;9.152;2023-02-12T07:09:36;4.17;83.25
65972;SHT31;52726;48.852;9.152;2023-02-12T07:12:02;4.18;83.25
65972;SHT31;52726;48.852;9.152;2023-02-12T07:14:27;4.18;83.28
65972;SHT31;52726;48.852;9.152;2023-02-12T07:16:54;4.24;83.04
65972;SHT31;52726;48.852;9.152;2023-02-12T07:19:20;4.31;82.99
65972;SHT31;52726;48.852;9.152;2023-02-12T07:21:45;4.31;82.89
65972;SHT31;52726;48.852;9.152;2023-02-12T07:24:11;4.32;82.74
65972;SHT31;52726;48.852;9.152;2023-02-12T07:26:38;4.35;82.74
65972;SHT31;52726;48.852;9.152;2023-02-12T07:29:04;4.35;82.59
65972;SHT31;52726;48.852;9.152;2023-02-12T07:31:29;4.40;82.55
65972;SHT31;52726;48.852;9.152;2023-02-12T07:33:56;4.44;82.47
65972;SHT31;52726;48.852;9.152;2023-02-12T07:36:23;4.46;82.29
65972;SHT31;52726;48.852;9.152;2023-02-12T07:38:49;4.51;81.96
65972;SHT31;52726;48.852;9.152;2023-02-12T07:41:18;4.52;81.89
65972;SHT31;52726;48.852;9.152;2023-02-12T07:43:45;4.61;82.07
65972;SHT31;52726;48.852;9.152;2023-02-12T07:46:13;4.62;81.79
65972;SHT31;52726;48.852;9.152;2023-02-12T07:48:40;4.65;81.91
65972;SHT31;52726;48.852;9.152;2023-02-12T07:51:08;4.73;81.41
65972;SHT31;52726;48.852;9.152;2023-02-12T07:53:34;4.75;81.27
65972;SHT31;52726;48.852;9.152;2023-02-12T07:56:24;4.81;81.20
65972;SHT31;52726;48.852;9.152;2023-02-12T07:58:51;4.89;80.90
65972;SHT31;52726;48.852;9.152;2023-02-12T08:01:25;4.86;81.13
65972;SHT31;52726;48.852;9.152;2023-02-12T08:03:52;4.86;81.32
65972;SHT31;52726;48.852;9.152;2023-02-12T08:08:43;4.90;80.94
65972;SHT31;52726;48.852;9.152;2023-02-12T08:11:11;4.89;81.09
65972;SHT31;52726;48.852;9.152;2023-02-12T08:13:37;4.94;80.91
65972;SHT31;52726;48.852;9.152;2023-02-12T08:16:05;5.04;80.61
65972;SHT31;52726;48.852;9.152;2023-02-12T08:18:31;5.07;80.85
65972;SHT31;52726;48.852;9.152;2023-02-12T08:21:08;5.06;80.58
65972;SHT31;52726;48.852;9.152;2023-02-12T08:23:34;5.18;80.68
65972;SHT31;52726;48.852;9.152;2023-02-12T08:26:12;5.26;81.03
65972;SHT31;52726;48.852;9.152;2023-02-12T08:28:42;5.28;81.30
65972;SHT31;52726;48.852;9.152;2023-02-12T08:31:12;5.26;80.72
65972;SHT31;52726;48.852;9.152;2023-02-12T08:33:38;5.24;80.58
65972;SHT31;52726;48.852;9.152;2023-02-12T08:36:09;5.26;80.90
65972;SHT31;52726;48.852;9.152;2023-02-12T08:38:37;5.31;80.50
65972;SHT31;52726;48.852;9.152;2023-02-12T08:41:09;5.37;80.59
65972;SHT31;52726;48.852;9.152;2023-02-12T08:43:35;5.39;80.96
65972;SHT31;52726;48.852;9.152;2023-02-12T08:46:12;5.41;80.85
65972;SHT31;52726;48.852;9.152;2023-02-12T08:48:39;5.48;81.02
65972;SHT31;52726;48.852;9.152;2023-02-12T08:53:35;5.55;80.04
65972;SHT31;52726;48.852;9.152;2023-02-12T08:56:14;5.54;80.18
65972;SHT31;52726;48.852;9.152;2023-02-12T08:58:41;5.59;79.90
65972;SHT31;52726;48.852;9.152;2023-02-12T09:01:12;5.60;80.22
65972;SHT31;52726;48.852;9.152;2023-02-12T09:03:38;5.63;80.13
65972;SHT31;52726;48.852;9.152;2023-02-12T09:06:05;5.66;80.13
65972;SHT31;52726;48.852;9.152;2023-02-12T09:08:30;5.87;79.02
65972;SHT31;52726;48.852;9.152;2023-02-12T09:10:56;5.82;79.41
65972;SHT31;52726;48.852;9.152;2023-02-12T09:13:21;5.72;79.88
65972;SHT31;52726;48.852;9.152;2023-02-12T09:15:47;5.67;80.15
65972;SHT31;52726;48.852;9.152;2023-02-12T09:18:13;5.73;80.19
65972;SHT31;52726;48.852;9.152;2023-02-12T09:20:41;5.82;79.86
65972;SHT31;52726;48.852;9.152;2023-02-12T09:23:08;5.94;79.07
65972;SHT31;52726;48.852;9.152;2023-02-12T09:25:38;5.82;79.88
65972;SHT31;52726;48.852;9.152;2023-02-12T09:28:03;5.82;80.26
65972;SHT31;52726;48.852;9.152;2023-02-12T09:30:29;5.89;80.07
65972;SHT31;52726;48.852;9.152;2023-02-12T09:32:55;6.14;79.37
65972;SHT31;52726;48.852;9.152;2023-02-12T09:35:20;6.17;79.14
65972;SHT31;52726;48.852;9.152;2023-02-12T09:37:46;6.23;79.75
65972;SHT31;52726;48.852;9.152;2023-02-12T09:40:21;6.33;79.22
65972;SHT31;52726;48.852;9.152;2023-02-12T09:43:16;6.51;78.41
65972;SHT31;52726;48.852;9.152;2023-02-12T09:46:00;6.52;78.64
65972;SHT31;52726;48.852;9.152;2023-02-12T09:48:41;6.65;79.65
65972;SHT31;52726;48.852;9.152;2023-02-12T09:51:07;6.79;79.04
65972;SHT31;52726;48.852;9.152;2023-02-12T09:53:36;6.90;78.18
65972;SHT31;52726;48.852;9.152;2023-02-12T09:56:08;7.00;77.74
65972;SHT31;52726;48.852;9.152;2023-02-12T09:58:41;7.07;77.50
65972;SHT31;52726;48.852;9.152;2023-02-12T10:01:12;7.07;78.02
65972;SHT31;52726;48.852;9.152;2023-02-12T10:03:38;7.19;77.56
65972;SHT31;52726;48.852;9.152;2023-02-12T10:06:07;7.28;77.09
65972;SHT31;52726;48.852;9.152;2023-02-12T10:08:57;7.24;78.53
65972;SHT31;52726;48.852;9.152;2023-02-12T10:14:13;7.37;78.25
65972;SHT31;52726;48.852;9.152;2023-02-12T10:17:12;7.47;77.84
65972;SHT31;52726;48.852;9.152;2023-02-12T10:20:08;7.58;78.54
65972;SHT31;52726;48.852;9.152;2023-02-12T10:25:47;7.61;78.01
65972;SHT31;52726;48.852;9.152;2023-02-12T10:28:17;7.69;77.68
65972;SHT31;52726;48.852;9.152;2023-02-12T10:30:52;7.85;76.42
65972;SHT31;52726;48.852;9.152;2023-02-12T10:33:26;7.83;77.23
65972;SHT31;52726;48.852;9.152;2023-02-12T10:39:21;7.85;77.11
65972;SHT31;52726;48.852;9.152;2023-02-12T10:44:39;7.79;77.75
65972;SHT31;52726;48.852;9.152;2023-02-12T10:47:05;8.16;75.63
65972;SHT31;52726;48.852;9.152;2023-02-12T10:49:32;7.95;75.70
65972;SHT31;52726;48.852;9.152;2023-02-12T10:52:08;7.85;76.46
65972;SHT31;52726;48.852;9.152;2023-02-12T10:54:46;7.78;76.63
65972;SHT31;52726;48.852;9.152;2023-02-12T10:57:17;7.69;77.24
65972;SHT31;52726;48.852;9.152;2023-02-12T10:59:45;7.86;76.53
65972;SHT31;52726;48.852;9.152;2023-02-12T11:02:23;7.81;76.52
65972;SHT31;52726;48.852;9.152;2023-02-12T11:04:49;7.71;76.99
65972;SHT31;52726;48.852;9.152;2023-02-12T11:07:15;7.78;76.95
65972;SHT31;52726;48.852;9.152;2023-02-12T11:09:45;7.82;76.98
65972;SHT31;52726;48.852;9.152;2023-02-12T11:15:03;7.86;76.06
65972;SHT31;52726;48.852;9.152;2023-02-12T11:17:37;7.89;76.26
65972;SHT31;52726;48.852;9.152;2023-02-12T11:20:05;7.92;77.16
65972;SHT31;52726;48.852;9.152;2023-02-12T11:22:34;7.87;76.87
65972;SHT31;52726;48.852;9.152;2023-02-12T11:25:01;7.95;76.85
65972;SHT31;52726;48.852;9.152;2023-02-12T11:27:32;8.03;76.37
65972;SHT31;52726;48.852;9.152;2023-02-12T11:30:14;8.10;76.08
65972;SHT31;52726;48.852;9.152;2023-02-12T11:32:39;8.17;75.56
65972;SHT31;52726;48.852;9.152;2023-02-12T11:37:48;8.26;75.29
65972;SHT31;52726;48.852;9.152;2023-02-12T11:40:17;8.24;75.94
65972;SHT31;52726;48.852;9.152;2023-02-12T11:43:05;8.14;76.62
65972;SHT31;52726;48.852;9.152;2023-02-12T11:45:41;8.17;76.21
65972;SHT31;52726;48.852;9.152;2023-02-12T11:48:37;8.41;75.35
65972;SHT31;52726;48.852;9.152;2023-02-12T11:51:07;8.38;75.59
65972;SHT31;52726;48.852;9.152;2023-02-12T11:53:41;8.44;76.32
65972;SHT31;52726;48.852;9.152;2023-02-12T11:56:12;8.54;75.49
65972;SHT31;52726;48.852;9.152;2023-02-12T11:58:38;8.55;74.82
65972;SHT31;52726;48.852;9.152;2023-02-12T12:01:46;8.67;74.95
65972;SHT31;52726;48.852;9.152;2023-02-12T12:04:13;8.64;76.50
65972;SHT31;52726;48.852;9.152;2023-02-12T12:06:45;8.60;75.12
65972;SHT31;52726;48.852;9.152;2023-02-12T12:09:29;8.76;73.84
65972;SHT31;52726;48.852;9.152;2023-02-12T12:12:15;8.64;75.57
65972;SHT31;52726;48.852;9.152;2023-02-12T12:17:43;8.76;73.80
65972;SHT31;52726;48.852;9.152;2023-02-12T12:20:38;8.86;73.46
65972;SHT31;52726;48.852;9.152;2023-02-12T12:23:20;8.68;74.42
65972;SHT31;52726;48.852;9.152;2023-02-12T12:25:51;8.83;74.87
65972;SHT31;52726;48.852;9.152;2023-02-12T12:28:44;8.91;74.39
65972;SHT31;52726;48.852;9.152;2023-02-12T12:56:09;9.16;73.06
65972;SHT31;52726;48.852;9.152;2023-02-12T12:58:42;9.26;72.97
65972;SHT31;52726;48.852;9.152;2023-02-12T13:04:30;8.92;74.13
65972;SHT31;52726;48.852;9.152;2023-02-12T13:12:42;9.27;73.26
65972;SHT31;52726;48.852;9.152;2023-02-12T13:19:10;9.08;73.96
65972;SHT31;52726;48.852;9.152;2023-02-12T13:27:25;8.91;75.01
65972;SHT31;52726;48.852;9.152;2023-02-12T13:30:22;9.10;73.75
65972;SHT31;52726;48.852;9.152;2023-02-12T13:35:43;9.18;73.74
65972;SHT31;52726;48.852;9.152;2023-02-12T13:38:18;9.13;73.62
65972;SHT31;52726;48.852;9.152;2023-02-12T13:40:45;9.10;73.66
65972;SHT31;52726;48.852;9.152;2023-02-12T13:49:04;9.41;73.24
65972;SHT31;52726;48.852;9.152;2023-02-12T13:51:46;9.40;72.79
65972;SHT31;52726;48.852;9.152;2023-02-12T13:54:28;9.27;73.17
65972;SHT31;52726;48.852;9.152;2023-02-12T13:56:59;9.50;72.51
65972;SHT31;52726;48.852;9.152;2023-02-12T14:01:58;9.29;72.97
65972;SHT31;52726;48.852;9.152;2023-02-12T14:04:45;9.24;73.96
65972;SHT31;52726;48.852;9.152;2023-02-12T14:07:13;9.30;73.68
65972;SHT31;52726;48.852;9.152;2023-02-12T14:12:35;9.23;73.97
65972;SHT31;52726;48.852;9.152;2023-02-12T14:15:27;9.27;73.91
65972;SHT31;52726;48.852;9.152;2023-02-12T14:18:04;9.20;74.34
65972;SHT31;52726;48.852;9.152;2023-02-12T14:20:33;9.44;73.03
65972;SHT31;52726;48.852;9.152;2023-02-12T14:23:39;9.38;73.04
65972;SHT31;52726;48.852;9.152;2023-02-12T14:26:17;9.37;73.01
65972;SHT31;52726;48.852;9.152;2023-02-12T14:29:00;9.37;73.00
65972;SHT31;52726;48.852;9.152;2023-02-12T14:36:39;9.34;73.70
65972;SHT31;52726;48.852;9.152;2023-02-12T14:41:47;9.27;73.39
65972;SHT31;52726;48.852;9.152;2023-02-12T14:46:43;9.29;74.42
65972;SHT31;52726;48.852;9.152;2023-02-12T14:49:46;9.26;73.35
65972;SHT31;52726;48.852;9.152;2023-02-12T14:52:21;9.22;73.61
65972;SHT31;52726;48.852;9.152;2023-02-12T14:55:01;9.22;73.93
65972;SHT31;52726;48.852;9.152;2023-02-12T15:00:22;9.24;74.35
65972;SHT31;52726;48.852;9.152;2023-02-12T15:05:40;9.37;72.93
65972;SHT31;52726;48.852;9.152;2023-02-12T15:11:13;9.29;73.16
65972;SHT31;52726;48.852;9.152;2023-02-12T15:13:52;9.22;73.32
65972;SHT31;52726;48.852;9.152;2023-02-12T15:16:28;9.31;72.62
65972;SHT31;52726;48.852;9.152;2023-02-12T15:19:00;9.19;74.56
65972;SHT31;52726;48.852;9.152;2023-02-12T15:21:29;9.20;73.54
65972;SHT31;52726;48.852;9.152;2023-02-12T15:24:08;9.09;73.86
65972;SHT31;52726;48.852;9.152;2023-02-12T15:26:44;9.08;74.53
65972;SHT31;52726;48.852;9.152;2023-02-12T15:29:34;9.06;74.51
65972;SHT31;52726;48.852;9.152;2023-02-12T15:32:05;9.05;75.25
65972;SHT31;52726;48.852;9.152;2023-02-12T15:34:32;9.13;73.92
65972;SHT31;52726;48.852;9.152;2023-02-12T15:37:01;9.13;73.97
65972;SHT31;52726;48.852;9.152;2023-02-12T15:39:34;9.46;72.71
65972;SHT31;52726;48.852;9.152;2023-02-12T15:42:01;9.33;73.29
65972;SHT31;52726;48.852;9.152;2023-02-12T15:44:32;9.26;73.18
65972;SHT31;52726;48.852;9.152;2023-02-12T15:47:12;9.18;73.52
65972;SHT31;52726;48.852;9.152;2023-02-12T15:49:39;9.10;73.39
65972;SHT31;52726;48.852;9.152;2023-02-12T15:52:22;8.98;73.84
65972;SHT31;52726;48.852;9.152;2023-02-12T15:54:49;8.95;73.86
65972;SHT31;52726;48.852;9.152;2023-02-12T15:57:21;8.83;74.24
65972;SHT31;52726;48.852;9.152;2023-02-12T15:59:50;8.79;74.54
65972;SHT31;52726;48.852;9.152;2023-02-12T16:02:19;8.62;75.21
65972;SHT31;52726;48.852;9.152;2023-02-12T16:04:46;8.61;74.96
65972;SHT31;52726;48.852;9.152;2023-02-12T16:07:12;8.62;74.97
65972;SHT31;52726;48.852;9.152;2023-02-12T16:09:38;8.55;75.24
65972;SHT31;52726;48.852;9.152;2023-02-12T16:12:11;8.45;75.62
65972;SHT31;52726;48.852;9.152;2023-02-12T16:14:44;8.45;75.50
65972;SHT31;52726;48.852;9.152;2023-02-12T16:17:31;8.38;75.83
65972;SHT31;52726;48.852;9.152;2023-02-12T16:22:39;8.17;76.38
65972;SHT31;52726;48.852;9.152;2023-02-12T16:25:27;8.09;76.66
65972;SHT31;52726;48.852;9.152;2023-02-12T16:30:34;7.97;76.88
65972;SHT31;52726;48.852;9.152;2023-02-12T16:33:03;7.89;77.16
65972;SHT31;52726;48.852;9.152;2023-02-12T16:35:31;7.81;77.22
65972;SHT31;52726;48.852;9.152;2023-02-12T16:40:24;7.44;78.21
65972;SHT31;52726;48.852;9.152;2023-02-12T16:47:59;7.11;79.86
65972;SHT31;52726;48.852;9.152;2023-02-12T16:50:28;7.07;79.87
65972;SHT31;52726;48.852;9.152;2023-02-12T16:56:00;7.07;79.89
65972;SHT31;52726;48.852;9.152;2023-02-12T16:58:26;7.06;80.05
65972;SHT31;52726;48.852;9.152;2023-02-12T17:00:53;6.92;80.18
65972;SHT31;52726;48.852;9.152;2023-02-12T17:03:19;6.82;80.29
65972;SHT31;52726;48.852;9.152;2023-02-12T17:05:45;6.75;80.70
65972;SHT31;52726;48.852;9.152;2023-02-12T17:08:20;6.83;80.77
65972;SHT31;52726;48.852;9.152;2023-02-12T17:10:46;6.83;80.56
65972;SHT31;52726;48.852;9.152;2023-02-12T17:13:13;6.75;80.41
65972;SHT31;52726;48.852;9.152;2023-02-12T17:15:45;6.79;80.59
65972;SHT31;52726;48.852;9.152;2023-02-12T17:18:11;6.73;80.63
65972;SHT31;52726;48.852;9.152;2023-02-12T17:20:38;6.71;80.47
65972;SHT31;52726;48.852;9.152;2023-02-12T17:23:04;6.65;80.84
65972;SHT31;52726;48.852;9.152;2023-02-12T17:25:30;6.64;81.01
65972;SHT31;52726;48.852;9.152;2023-02-12T17:27:56;6.49;80.77
65972;SHT31;52726;48.852;9.152;2023-02-12T17:30:21;6.41;81.27
65972;SHT31;52726;48.852;9.152;2023-02-12T17:32:48;6.34;81.81
65972;SHT31;52726;48.852;9.152;2023-02-12T17:35:14;6.30;81.51
65972;SHT31;52726;48.852;9.152;2023-02-12T17:37:40;6.20;81.95
65972;SHT31;52726;48.852;9.152;2023-02-12T17:40:06;6.09;82.36
65972;SHT31;52726;48.852;9.152;2023-02-12T17:42:31;6.09;82.89
65972;SHT31;52726;48.852;9.152;2023-02-12T17:44:57;6.03;82.98
65972;SHT31;52726;48.852;9.152;2023-02-12T17:47:22;5.99;82.32
65972;SHT31;52726;48.852;9.152;2023-02-12T17:49:47;5.87;82.83
65972;SHT31;52726;48.852;9.152;2023-02-12T17:52:13;5.83;83.01
65972;SHT31;52726;48.852;9.152;2023-02-12T17:54:38;5.77;83.59
65972;SHT31;52726;48.852;9.152;2023-02-12T17:57:04;5.70;83.61
65972;SHT31;52726;48.852;9.152;2023-02-12T17:59:29;5.62;83.33
65972;SHT31;52726;48.852;9.152;2023-02-12T18:01:54;5.56;84.23
65972;SHT31;52726;48.852;9.152;2023-02-12T18:04:20;5.47;84.90
65972;SHT31;52726;48.852;9.152;2023-02-12T18:06:45;5.39;85.26
65972;SHT31;52726;48.852;9.152;2023-02-12T18:09:11;5.32;85.54
65972;SHT31;52726;48.852;9.152;2023-02-12T18:11:36;5.26;85.50
65972;SHT31;52726;48.852;9.152;2023-02-12T18:14:04;5.18;85.98
65972;SHT31;52726;48.852;9.152;2023-02-12T18:16:33;5.04;86.64
65972;SHT31;52726;48.852;9.152;2023-02-12T18:19:00;4.97;87.62
65972;SHT31;52726;48.852;9.152;2023-02-12T18:21:26;4.86;87.55
65972;SHT31;52726;48.852;9.152;2023-02-12T18:23:52;4.73;88.30
65972;SHT31;52726;48.852;9.152;2023-02-12T18:26:17;4.61;88.09
65972;SHT31;52726;48.852;9.152;2023-02-12T18:28:43;4.49;87.83
65972;SHT31;52726;48.852;9.152;2023-02-12T18:31:09;4.37;87.34
65972;SHT31;52726;48.852;9.152;2023-02-12T18:33:35;4.27;87.23
65972;SHT31;52726;48.852;9.152;2023-02-12T18:36:07;4.17;87.48
65972;SHT31;52726;48.852;9.152;2023-02-12T18:38:35;4.05;87.16
65972;SHT31;52726;48.852;9.152;2023-02-12T18:41:22;3.94;86.49